Time,TemperatureF,DewpointF,PressureIn,WindDirection,WindDirectionDegrees,WindSpeedMPH,WindSpeedGustMPH,Humidity,HourlyPrecipIn,Conditions,Clouds,dailyrainin,SoftwareType,DateUTC
2013-01-19 00:00:00,35.5,34.5,29.21,WNW,303,3.0,4.0,96,0.00,,,0.09,Wunderground v.1.15,2013-01-19 00:00:00,
2013-01-19 00:05:00,35.6,34.6,29.21,WNW,303,5.0,5.0,96,0.00,,,0.00,Wunderground v.1.15,2013-01-19 00:05:00,
2013-01-19 00:15:00,35.9,34.9,29.21,NW,306,5.0,6.0,96,0.00,,,0.00,Wunderground v.1.15,2013-01-19 00:15:00,
2013-01-19 00:25:00,36.1,35.1,29.21,NW,307,5.0,5.0,96,0.00,,,0.00,Wunderground v.1.15,2013-01-19 00:25:00,
2013-01-19 00:35:00,36.2,35.2,29.21,NW,307,5.0,5.0,96,0.00,,,0.00,Wunderground v.1.15,2013-01-19 00:35:00,
2013-01-19 00:45:00,36.3,35.3,29.21,NW,310,3.0,4.0,96,0.00,,,0.00,Wunderground v.1.15,2013-01-19 00:45:00,
2013-01-19 00:55:00,36.4,35.4,29.22,NW,310,3.0,3.0,96,0.00,,,0.00,Wunderground v.1.15,2013-01-19 00:55:00,
2013-01-19 01:05:00,36.5,35.7,29.22,NW,310,1.0,2.0,97,0.00,,,0.00,Wunderground v.1.15,2013-01-19 01:05:00,
2013-01-19 01:15:00,36.6,35.8,29.22,NW,311,2.0,4.0,97,0.00,,,0.00,Wunderground v.1.15,2013-01-19 01:15:00,
2013-01-19 01:20:00,36.6,35.8,29.23,NW,311,1.0,1.0,97,0.00,,,0.00,Wunderground v.1.15,2013-01-19 01:20:00,
2013-01-19 01:30:00,36.7,35.9,29.23,NW,311,1.0,4.0,97,0.00,,,0.00,Wunderground v.1.15,2013-01-19 01:30:00,
2013-01-19 01:40:00,36.8,36.0,29.23,NW,314,2.0,2.0,97,0.00,,,0.00,Wunderground v.1.15,2013-01-19 01:40:00,
2013-01-19 01:45:00,36.9,36.1,29.23,North,5,1.0,4.0,97,0.00,,,0.00,Wunderground v.1.15,2013-01-19 01:45:00,
2013-01-19 01:55:00,37.1,36.3,29.23,North,349,4.0,7.0,97,0.00,,,0.00,Wunderground v.1.15,2013-01-19 01:55:00,
2013-01-19 02:05:00,37.3,36.5,29.23,North,355,5.0,9.0,97,0.00,,,0.00,Wunderground v.1.15,2013-01-19 02:05:00,
2013-01-19 02:15:00,37.3,36.5,29.23,North,360,6.0,6.0,97,0.00,,,0.00,Wunderground v.1.15,2013-01-19 02:15:00,
2013-01-19 02:20:00,37.3,36.5,29.23,North,355,6.0,8.0,97,0.00,,,0.00,Wunderground v.1.15,2013-01-19 02:20:00,
2013-01-19 02:30:00,37.3,36.5,29.23,North,11,6.0,6.0,97,0.00,,,0.00,Wunderground v.1.15,2013-01-19 02:30:00,
2013-01-19 02:40:00,37.3,36.5,29.24,North,360,6.0,6.0,97,0.00,,,0.00,Wunderground v.1.15,2013-01-19 02:40:00,
2013-01-19 02:45:00,37.3,36.5,29.24,North,11,6.0,6.0,97,0.00,,,0.00,Wunderground v.1.15,2013-01-19 02:45:00,
2013-01-19 02:55:00,37.4,36.6,29.24,NNE,28,5.0,6.0,97,0.00,,,0.00,Wunderground v.1.15,2013-01-19 02:55:00,
2013-01-19 03:00:00,37.3,36.5,29.24,North,360,5.0,5.0,97,0.00,,,0.00,Wunderground v.1.15,2013-01-19 03:00:00,
2013-01-19 03:05:00,37.4,36.6,29.25,North,360,6.0,7.0,97,0.00,,,0.00,Wunderground v.1.15,2013-01-19 03:05:00,
2013-01-19 03:15:00,37.4,36.6,29.25,North,355,7.0,8.0,97,0.00,,,0.00,Wunderground v.1.15,2013-01-19 03:15:00,
2013-01-19 03:25:00,37.3,36.5,29.26,NNW,340,5.0,7.0,97,0.00,,,0.00,Wunderground v.1.15,2013-01-19 03:25:00,
2013-01-19 03:35:00,37.3,36.5,29.26,NW,319,6.0,6.0,97,0.00,,,0.00,Wunderground v.1.15,2013-01-19 03:35:00,
2013-01-19 03:45:00,37.3,36.5,29.26,North,5,6.0,6.0,97,0.00,,,0.00,Wunderground v.1.15,2013-01-19 03:45:00,
2013-01-19 03:55:00,37.3,36.5,29.26,North,349,7.0,7.0,97,0.00,,,0.00,Wunderground v.1.15,2013-01-19 03:55:00,
2013-01-19 04:00:00,37.3,36.5,29.26,NNW,340,7.0,7.0,97,0.00,,,0.00,Wunderground v.1.15,2013-01-19 04:00:00,
2013-01-19 04:05:00,37.3,36.5,29.27,North,351,7.0,7.0,97,0.00,,,0.00,Wunderground v.1.15,2013-01-19 04:05:00,
2013-01-19 04:15:00,37.3,36.5,29.27,North,10,8.0,9.0,97,0.00,,,0.00,Wunderground v.1.15,2013-01-19 04:15:00,
2013-01-19 04:25:00,37.3,36.5,29.28,NNE,19,6.0,8.0,97,0.00,,,0.00,Wunderground v.1.15,2013-01-19 04:25:00,
2013-01-19 04:30:00,37.3,36.5,29.28,North,5,6.0,6.0,97,0.00,,,0.00,Wunderground v.1.15,2013-01-19 04:30:00,
2013-01-19 04:40:00,37.2,36.4,29.28,NNE,17,7.0,7.0,97,0.00,,,0.00,Wunderground v.1.15,2013-01-19 04:40:00,
2013-01-19 04:50:00,37.1,36.3,29.28,North,5,6.0,6.0,97,0.00,,,0.00,Wunderground v.1.15,2013-01-19 04:50:00,
2013-01-19 05:05:00,36.9,36.1,29.28,NE,37,5.0,7.0,97,0.00,,,0.00,Wunderground v.1.15,2013-01-19 05:05:00,
2013-01-19 05:10:00,36.9,36.1,29.28,North,360,5.0,5.0,97,0.00,,,0.00,Wunderground v.1.15,2013-01-19 05:10:00,
2013-01-19 05:20:00,36.9,36.1,29.29,NNE,17,5.0,5.0,97,0.00,,,0.00,Wunderground v.1.15,2013-01-19 05:20:00,
2013-01-19 05:25:00,36.9,36.1,29.29,NNE,17,5.0,5.0,97,0.00,,,0.00,Wunderground v.1.15,2013-01-19 05:25:00,
2013-01-19 05:35:00,36.8,36.0,29.29,NE,49,4.0,5.0,97,0.00,,,0.00,Wunderground v.1.15,2013-01-19 05:35:00,
2013-01-19 05:45:00,36.9,36.1,29.29,NNE,24,6.0,6.0,97,0.00,,,0.00,Wunderground v.1.15,2013-01-19 05:45:00,
2013-01-19 05:55:00,36.9,36.1,29.30,NE,44,6.0,6.0,97,0.00,,,0.00,Wunderground v.1.15,2013-01-19 05:55:00,
2013-01-19 06:05:00,36.8,36.0,29.30,North,9,4.0,5.0,97,0.00,,,0.00,Wunderground v.1.15,2013-01-19 06:05:00,
2013-01-19 06:15:00,36.7,35.9,29.30,North,9,3.0,5.0,97,0.00,,,0.00,Wunderground v.1.15,2013-01-19 06:15:00,
2013-01-19 06:20:00,36.6,35.8,29.31,North,9,4.0,4.0,97,0.00,,,0.00,Wunderground v.1.15,2013-01-19 06:20:00,
2013-01-19 06:30:00,36.5,35.7,29.31,North,5,4.0,4.0,97,0.00,,,0.00,Wunderground v.1.15,2013-01-19 06:30:00,
2013-01-19 06:40:00,36.5,35.7,29.31,North,11,4.0,4.0,97,0.00,,,0.00,Wunderground v.1.15,2013-01-19 06:40:00,
2013-01-19 06:50:00,36.5,35.7,29.32,North,10,4.0,6.0,97,0.00,,,0.00,Wunderground v.1.15,2013-01-19 06:50:00,
2013-01-19 07:00:00,36.5,35.7,29.32,NNE,15,5.0,6.0,97,0.00,,,0.00,Wunderground v.1.15,2013-01-19 07:00:00,
2013-01-19 07:05:00,36.5,35.7,29.32,NNE,26,5.0,6.0,97,0.00,,,0.00,Wunderground v.1.15,2013-01-19 07:05:00,
2013-01-19 07:15:00,36.4,35.6,29.32,NNE,33,4.0,4.0,97,0.00,,,0.00,Wunderground v.1.15,2013-01-19 07:15:00,
2013-01-19 07:25:00,36.5,35.7,29.33,North,9,3.0,7.0,97,0.00,,,0.00,Wunderground v.1.15,2013-01-19 07:25:00,
2013-01-19 07:30:00,36.5,35.7,29.33,NE,35,4.0,4.0,97,0.00,,,0.00,Wunderground v.1.15,2013-01-19 07:30:00,
2013-01-19 07:40:00,36.7,35.9,29.34,NNE,18,4.0,4.0,97,0.00,,,0.00,Wunderground v.1.15,2013-01-19 07:40:00,
2013-01-19 07:50:00,36.9,36.1,29.34,North,11,4.0,4.0,97,0.00,,,0.01,Wunderground v.1.15,2013-01-19 07:50:00,
2013-01-19 08:00:00,37.0,36.2,29.34,NNE,21,4.0,5.0,97,0.00,,,0.01,Wunderground v.1.15,2013-01-19 08:00:00,
2013-01-19 08:05:00,37.0,36.2,29.35,NNE,28,4.0,5.0,97,0.00,,,0.01,Wunderground v.1.15,2013-01-19 08:05:00,
2013-01-19 08:15:00,37.1,36.3,29.35,NNE,18,4.0,6.0,97,0.00,,,0.01,Wunderground v.1.15,2013-01-19 08:15:00,
2013-01-19 08:20:00,37.1,36.3,29.36,NNE,19,4.0,7.0,97,0.00,,,0.01,Wunderground v.1.15,2013-01-19 08:20:00,
2013-01-19 08:30:00,37.2,36.4,29.36,North,11,5.0,5.0,97,0.00,,,0.01,Wunderground v.1.15,2013-01-19 08:30:00,
2013-01-19 08:40:00,37.2,36.4,29.36,NE,43,5.0,7.0,97,0.00,,,0.01,Wunderground v.1.15,2013-01-19 08:40:00,
2013-01-19 08:45:00,37.3,36.5,29.36,NNE,32,5.0,7.0,97,0.00,,,0.02,Wunderground v.1.15,2013-01-19 08:45:00,
2013-01-19 08:55:00,37.3,36.5,29.37,NNE,33,5.0,6.0,97,0.00,,,0.02,Wunderground v.1.15,2013-01-19 08:55:00,
2013-01-19 09:05:00,37.3,36.5,29.37,NNE,14,5.0,5.0,97,0.00,,,0.02,Wunderground v.1.15,2013-01-19 09:05:00,
2013-01-19 09:15:00,37.3,36.8,29.37,NNE,24,5.0,6.0,98,0.00,,,0.02,Wunderground v.1.15,2013-01-19 09:15:00,
2013-01-19 09:25:00,37.4,36.9,29.38,NE,40,6.0,9.0,98,0.00,,,0.02,Wunderground v.1.15,2013-01-19 09:25:00,
2013-01-19 09:35:00,37.4,36.9,29.38,NNE,17,6.0,7.0,98,0.00,,,0.03,Wunderground v.1.15,2013-01-19 09:35:00,
2013-01-19 09:45:00,37.4,36.9,29.38,ENE,65,7.0,9.0,98,0.00,,,0.03,Wunderground v.1.15,2013-01-19 09:45:00,
2013-01-19 09:55:00,37.3,36.8,29.39,NNE,20,7.0,10.0,98,0.00,,,0.04,Wunderground v.1.15,2013-01-19 09:55:00,
2013-01-19 10:00:00,37.4,36.9,29.39,NE,51,7.0,7.0,98,0.00,,,0.04,Wunderground v.1.15,2013-01-19 10:00:00,
2013-01-19 10:05:00,37.3,36.8,29.39,ENE,61,6.0,7.0,98,0.00,,,0.04,Wunderground v.1.15,2013-01-19 10:05:00,
2013-01-19 10:15:00,37.5,37.0,29.39,ENE,76,7.0,9.0,98,0.00,,,0.04,Wunderground v.1.15,2013-01-19 10:15:00,
2013-01-19 10:25:00,37.7,37.2,29.39,NE,46,7.0,7.0,98,0.00,,,0.05,Wunderground v.1.15,2013-01-19 10:25:00,
2013-01-19 10:35:00,38.0,37.5,29.40,NE,45,5.0,7.0,98,0.00,,,0.05,Wunderground v.1.15,2013-01-19 10:35:00,
2013-01-19 10:45:00,38.1,37.6,29.40,NNE,28,5.0,6.0,98,0.00,,,0.05,Wunderground v.1.15,2013-01-19 10:45:00,
2013-01-19 10:55:00,38.0,37.5,29.41,ENE,74,6.0,8.0,98,0.00,,,0.05,Wunderground v.1.15,2013-01-19 10:55:00,
2013-01-19 11:05:00,38.0,37.5,29.41,ENE,61,5.0,8.0,98,0.00,,,0.05,Wunderground v.1.15,2013-01-19 11:05:00,
2013-01-19 12:50:00,38.4,37.6,29.41,NE,51,3.0,3.0,97,0.00,,,0.06,Wunderground v.1.15,2013-01-19 12:50:00,
2013-01-19 12:55:00,38.4,37.6,29.41,ENE,69,3.0,4.0,97,0.00,,,0.06,Wunderground v.1.15,2013-01-19 12:55:00,
2013-01-19 13:00:00,38.4,37.6,29.41,NE,51,4.0,7.0,97,0.00,,,0.06,Wunderground v.1.15,2013-01-19 13:00:00,
2013-01-19 13:05:00,38.4,37.6,29.41,ENE,67,4.0,7.0,97,0.00,,,0.06,Wunderground v.1.15,2013-01-19 13:05:00,
2013-01-19 13:10:00,38.4,37.6,29.41,ENE,61,4.0,4.0,97,0.00,,,0.06,Wunderground v.1.15,2013-01-19 13:10:00,
2013-01-19 13:20:00,38.4,37.6,29.42,East,81,3.0,5.0,97,0.00,,,0.06,Wunderground v.1.15,2013-01-19 13:20:00,
2013-01-19 13:25:00,38.5,37.7,29.42,ENE,74,3.0,5.0,97,0.00,,,0.06,Wunderground v.1.15,2013-01-19 13:25:00,
2013-01-19 13:35:00,38.6,38.1,29.42,East,84,2.0,2.0,98,0.00,,,0.06,Wunderground v.1.15,2013-01-19 13:35:00,
2013-01-19 13:40:00,38.5,37.7,29.42,ENE,77,2.0,2.0,97,0.00,,,0.06,Wunderground v.1.15,2013-01-19 13:40:00,
2013-01-19 13:45:00,38.5,37.7,29.42,ENE,76,2.0,2.0,97,0.00,,,0.06,Wunderground v.1.15,2013-01-19 13:45:00,
2013-01-19 13:55:00,38.5,37.7,29.42,ENE,74,2.0,3.0,97,0.00,,,0.06,Wunderground v.1.15,2013-01-19 13:55:00,
2013-01-19 14:05:00,38.6,37.8,29.42,ENE,72,2.0,3.0,97,0.00,,,0.06,Wunderground v.1.15,2013-01-19 14:05:00,
2013-01-19 14:15:00,38.8,38.0,29.42,ENE,64,3.0,3.0,97,0.00,,,0.06,Wunderground v.1.15,2013-01-19 14:15:00,
2013-01-19 14:20:00,38.8,38.0,29.42,ENE,69,4.0,4.0,97,0.00,,,0.06,Wunderground v.1.15,2013-01-19 14:20:00,
2013-01-19 14:30:00,38.7,37.9,29.42,East,80,3.0,3.0,97,0.00,,,0.06,Wunderground v.1.15,2013-01-19 14:30:00,
2013-01-19 14:40:00,38.8,38.0,29.43,East,79,2.0,2.0,97,0.00,,,0.06,Wunderground v.1.15,2013-01-19 14:40:00,
2013-01-19 14:50:00,38.9,38.1,29.43,East,79,1.0,2.0,97,0.00,,,0.06,Wunderground v.1.15,2013-01-19 14:50:00,
2013-01-19 14:55:00,38.9,38.1,29.43,East,79,1.0,2.0,97,0.00,,,0.06,Wunderground v.1.15,2013-01-19 14:55:00,
2013-01-19 15:05:00,38.8,38.0,29.44,East,79,1.0,1.0,97,0.00,,,0.06,Wunderground v.1.15,2013-01-19 15:05:00,
2013-01-19 15:15:00,38.9,38.1,29.44,ENE,78,1.0,1.0,97,0.00,,,0.06,Wunderground v.1.15,2013-01-19 15:15:00,
2013-01-19 15:20:00,38.8,38.0,29.44,ENE,78,1.0,1.0,97,0.00,,,0.06,Wunderground v.1.15,2013-01-19 15:20:00,
2013-01-19 15:30:00,38.8,38.0,29.44,East,79,1.0,2.0,97,0.00,,,0.06,Wunderground v.1.15,2013-01-19 15:30:00,
2013-01-19 15:40:00,38.7,37.9,29.44,ENE,78,1.0,2.0,97,0.00,,,0.06,Wunderground v.1.15,2013-01-19 15:40:00,
2013-01-19 15:50:00,38.6,37.8,29.45,ENE,77,1.0,1.0,97,0.00,,,0.06,Wunderground v.1.15,2013-01-19 15:50:00,
2013-01-19 16:00:00,38.4,37.6,29.45,ENE,76,2.0,9.0,97,0.00,,,0.07,Wunderground v.1.15,2013-01-19 16:00:00,
2013-01-19 16:05:00,38.0,37.2,29.45,East,98,4.0,9.0,97,0.00,,,0.07,Wunderground v.1.15,2013-01-19 16:05:00,
2013-01-19 16:15:00,37.2,36.2,29.45,ENE,78,5.0,5.0,96,0.04,,,0.08,Wunderground v.1.15,2013-01-19 16:15:00,
2013-01-19 16:25:00,36.9,35.9,29.46,ENE,64,3.0,4.0,96,0.04,,,0.08,Wunderground v.1.15,2013-01-19 16:25:00,
2013-01-19 16:35:00,36.6,35.6,29.47,ENE,64,2.0,2.0,96,0.04,,,0.09,Wunderground v.1.15,2013-01-19 16:35:00,
2013-01-19 16:45:00,36.5,35.5,29.47,East,84,2.0,6.0,96,0.00,,,0.09,Wunderground v.1.15,2013-01-19 16:45:00,
2013-01-19 16:50:00,36.3,35.3,29.47,ENE,74,4.0,4.0,96,0.00,,,0.09,Wunderground v.1.15,2013-01-19 16:50:00,
2013-01-19 17:00:00,35.6,34.6,29.47,ENE,78,3.0,3.0,96,0.00,,,0.09,Wunderground v.1.15,2013-01-19 17:00:00,
2013-01-19 17:05:00,35.4,34.4,29.47,ENE,76,2.0,3.0,96,0.00,,,0.09,Wunderground v.1.15,2013-01-19 17:05:00,
2013-01-19 17:15:00,35.2,34.2,29.47,ENE,76,1.0,3.0,96,0.00,,,0.09,Wunderground v.1.15,2013-01-19 17:15:00,
2013-01-19 17:30:00,35.2,34.2,29.48,ENE,67,4.0,4.0,96,0.00,,,0.09,Wunderground v.1.15,2013-01-19 17:30:00,
2013-01-19 17:40:00,34.9,33.9,29.48,ENE,67,1.0,1.0,96,0.00,,,0.09,Wunderground v.1.15,2013-01-19 17:40:00,
2013-01-19 17:45:00,34.8,33.8,29.48,ENE,67,0.0,3.0,96,0.00,,,0.09,Wunderground v.1.15,2013-01-19 17:45:00,
2013-01-19 17:55:00,34.8,33.8,29.48,ENE,67,2.0,3.0,96,0.00,,,0.09,Wunderground v.1.15,2013-01-19 17:55:00,
2013-01-19 18:00:00,34.8,33.8,29.48,ENE,67,2.0,2.0,96,0.00,,,0.09,Wunderground v.1.15,2013-01-19 18:00:00,
2013-01-19 18:15:00,34.9,33.9,29.48,ENE,66,2.0,3.0,96,0.00,,,0.09,Wunderground v.1.15,2013-01-19 18:15:00,
2013-01-19 18:25:00,35.1,34.1,29.48,ENE,66,2.0,3.0,96,0.00,,,0.09,Wunderground v.1.15,2013-01-19 18:25:00,
2013-01-19 18:35:00,35.1,34.1,29.49,ENE,65,2.0,3.0,96,0.00,,,0.09,Wunderground v.1.15,2013-01-19 18:35:00,
2013-01-19 18:40:00,35.2,34.2,29.49,ENE,65,3.0,3.0,96,0.00,,,0.09,Wunderground v.1.15,2013-01-19 18:40:00,
2013-01-19 18:50:00,35.3,34.5,29.49,ENE,65,3.0,3.0,97,0.00,,,0.09,Wunderground v.1.15,2013-01-19 18:50:00,
2013-01-19 19:00:00,35.2,34.2,29.49,ENE,63,4.0,5.0,96,0.00,,,0.09,Wunderground v.1.15,2013-01-19 19:00:00,
2013-01-19 19:05:00,35.1,34.1,29.49,ENE,63,3.0,5.0,96,0.00,,,0.09,Wunderground v.1.15,2013-01-19 19:05:00,
2013-01-19 19:15:00,35.1,34.1,29.49,NE,36,3.0,4.0,96,0.00,,,0.09,Wunderground v.1.15,2013-01-19 19:15:00,
2013-01-19 19:25:00,35.1,34.1,29.49,NE,36,1.0,2.0,96,0.00,,,0.09,Wunderground v.1.15,2013-01-19 19:25:00,
2013-01-19 19:30:00,35.2,34.2,29.49,NE,36,1.0,1.0,96,0.00,,,0.09,Wunderground v.1.15,2013-01-19 19:30:00,
2013-01-19 19:35:00,35.2,34.2,29.50,NE,36,1.0,1.0,96,0.00,,,0.09,Wunderground v.1.15,2013-01-19 19:35:00,
2013-01-19 19:45:00,35.2,34.4,29.50,NE,36,0.0,1.0,97,0.00,,,0.09,Wunderground v.1.15,2013-01-19 19:45:00,
2013-01-19 19:50:00,35.2,34.4,29.50,NE,36,0.0,0.0,97,0.00,,,0.09,Wunderground v.1.15,2013-01-19 19:50:00,
2013-01-19 20:00:00,35.2,34.4,29.50,NE,36,1.0,3.0,97,0.00,,,0.09,Wunderground v.1.15,2013-01-19 20:00:00,
2013-01-19 20:06:00,35.3,34.5,29.50,NE,36,1.0,3.0,97,0.00,,,0.09,Wunderground v.1.15,2013-01-19 20:06:00,
2013-01-19 20:15:00,35.3,34.5,29.50,NE,36,1.0,3.0,97,0.00,,,0.09,Wunderground v.1.15,2013-01-19 20:15:00,
2013-01-19 20:25:00,35.2,34.4,29.49,NE,36,0.0,1.0,97,0.00,,,0.09,Wunderground v.1.15,2013-01-19 20:25:00,
2013-01-19 20:30:00,35.2,34.4,29.49,NE,36,1.0,3.0,97,0.00,,,0.09,Wunderground v.1.15,2013-01-19 20:30:00,
2013-01-19 20:40:00,35.2,34.4,29.49,NE,37,2.0,2.0,97,0.00,,,0.09,Wunderground v.1.15,2013-01-19 20:40:00,
2013-01-19 20:50:00,35.1,34.3,29.50,NE,36,1.0,1.0,97,0.00,,,0.09,Wunderground v.1.15,2013-01-19 20:50:00,
2013-01-19 20:55:00,35.1,34.3,29.50,NE,37,1.0,3.0,97,0.00,,,0.09,Wunderground v.1.15,2013-01-19 20:55:00,
2013-01-19 21:00:00,35.1,34.3,29.50,NE,37,2.0,3.0,97,0.00,,,0.09,Wunderground v.1.15,2013-01-19 21:00:00,
2013-01-19 21:10:00,35.1,34.3,29.50,NE,37,3.0,3.0,97,0.00,,,0.09,Wunderground v.1.15,2013-01-19 21:10:00,
2013-01-19 21:20:00,35.1,34.3,29.50,NE,37,4.0,4.0,97,0.00,,,0.09,Wunderground v.1.15,2013-01-19 21:20:00,
2013-01-19 21:30:00,35.1,34.3,29.50,NE,36,3.0,4.0,97,0.00,,,0.09,Wunderground v.1.15,2013-01-19 21:30:00,
2013-01-19 21:50:00,35.1,34.3,29.49,NE,39,3.0,3.0,97,0.00,,,0.09,Wunderground v.1.15,2013-01-19 21:50:00,
2013-01-19 21:55:00,35.0,34.2,29.49,NE,39,3.0,4.0,97,0.00,,,0.09,Wunderground v.1.15,2013-01-19 21:55:00,
2013-01-19 22:00:00,35.0,34.2,29.49,NE,38,3.0,3.0,97,0.00,,,0.09,Wunderground v.1.15,2013-01-19 22:00:00,
2013-01-19 22:06:00,35.0,34.2,29.49,NE,38,3.0,3.0,97,0.00,,,0.09,Wunderground v.1.15,2013-01-19 22:06:00,
2013-01-19 22:15:00,35.0,34.2,29.49,NE,38,2.0,3.0,97,0.00,,,0.09,Wunderground v.1.15,2013-01-19 22:15:00,
2013-01-19 22:25:00,35.0,34.2,29.49,NE,39,2.0,3.0,97,0.00,,,0.09,Wunderground v.1.15,2013-01-19 22:25:00,
2013-01-19 22:30:00,35.0,34.2,29.49,NE,46,2.0,3.0,97,0.00,,,0.09,Wunderground v.1.15,2013-01-19 22:30:00,
2013-01-19 22:40:00,34.9,34.1,29.49,NE,46,3.0,4.0,97,0.00,,,0.09,Wunderground v.1.15,2013-01-19 22:40:00,
2013-01-19 22:50:00,34.8,34.0,29.49,NE,44,3.0,3.0,97,0.00,,,0.09,Wunderground v.1.15,2013-01-19 22:50:00,
2013-01-19 23:00:00,34.8,34.0,29.49,NE,42,3.0,3.0,97,0.00,,,0.09,Wunderground v.1.15,2013-01-19 23:00:00,
2013-01-19 23:10:00,34.8,34.0,29.49,NE,42,3.0,3.0,97,0.00,,,0.09,Wunderground v.1.15,2013-01-19 23:10:00,
2013-01-19 23:20:00,34.7,33.9,29.48,NE,42,3.0,3.0,97,0.00,,,0.09,Wunderground v.1.15,2013-01-19 23:20:00,
2013-01-19 23:30:00,34.5,33.7,29.48,NE,34,3.0,4.0,97,0.00,,,0.09,Wunderground v.1.15,2013-01-19 23:30:00,
2013-01-19 23:40:00,34.4,33.6,29.48,NE,38,5.0,5.0,97,0.00,,,0.09,Wunderground v.1.15,2013-01-19 23:40:00,
2013-01-19 23:50:00,34.2,33.4,29.48,NE,40,3.0,3.0,97,0.00,,,0.09,Wunderground v.1.15,2013-01-19 23:50:00,